Time;durP1;ratioP1;P1;durP2;ratioP2;P2;SDS_P1;SDS_P2;PMS_P1;PMS_P2;Temp;Humidity;BMP_temperature;BMP_pressure;BME280_temperature;BME280_humidity;BME280_pressure;Samples;Min_cycle;Max_cycle;Signal;HPM_P1;HPM_P2
2023/01/04 00:01:37;;;;;;;3.15;1.00;;;9.80;99.90;;;;;;5077165;28;20155;-82
2023/01/04 00:04:04;;;;;;;3.58;1.27;;;9.90;99.90;;;;;;5076831;28;20244;-88
2023/01/04 00:06:32;;;;;;;5.90;1.05;;;9.80;99.90;;;;;;5076416;28;20167;-93
2023/01/04 00:08:58;;;;;;;3.45;1.55;;;9.80;99.90;;;;;;5076632;28;20253;-83
2023/01/04 00:11:26;;;;;;;4.32;1.08;;;9.90;99.90;;;;;;5075363;28;20202;-87
2023/01/04 00:13:59;;;;;;;7.53;1.08;;;9.90;99.90;;;;;;5075105;28;20295;-79
2023/01/04 00:16:27;;;;;;;1.65;0.90;;;9.90;99.90;;;;;;5076758;28;20618;-78
2023/01/04 00:18:54;;;;;;;1.58;1.13;;;9.90;99.90;;;;;;5075901;28;20205;-82
2023/01/04 00:21:22;;;;;;;1.95;1.50;;;9.90;99.90;;;;;;5076361;28;20205;-82
2023/01/04 00:23:50;;;;;;;2.25;1.10;;;9.90;99.90;;;;;;5076081;28;20210;-81
2023/01/04 00:26:21;;;;;;;0.82;0.70;;;10.00;99.90;;;;;;5075868;28;20171;-78
2023/01/04 00:32:46;;;;;;;4.82;1.17;;;10.10;99.90;;;;;;5015554;28;20192;-89
2023/01/04 00:38:36;;;;;;;1.48;0.70;;;10.10;99.90;;;;;;5071994;28;20209;-79
2023/01/04 00:41:02;;;;;;;3.53;1.10;;;10.10;99.90;;;;;;5075265;28;20569;-80
2023/01/04 00:43:28;;;;;;;2.97;1.08;;;10.10;99.90;;;;;;5075025;28;20205;-80
2023/01/04 00:45:54;;;;;;;2.42;1.17;;;10.10;99.90;;;;;;5075350;28;20171;-79
2023/01/04 00:48:20;;;;;;;1.92;0.93;;;10.10;99.90;;;;;;5075220;28;20174;-80
2023/01/04 00:50:47;;;;;;;3.95;1.10;;;10.10;99.90;;;;;;5075041;28;20170;-79
2023/01/04 00:53:14;;;;;;;1.08;0.98;;;10.10;99.90;;;;;;5073791;28;20193;-79
2023/01/04 00:55:40;;;;;;;1.60;0.80;;;10.20;99.90;;;;;;5073869;28;20637;-79
2023/01/04 00:58:06;;;;;;;1.23;1.13;;;10.20;99.90;;;;;;5074689;28;20167;-86
2023/01/04 01:00:32;;;;;;;2.13;0.98;;;10.20;99.90;;;;;;5074762;28;20171;-80
2023/01/04 01:02:58;;;;;;;3.70;1.15;;;10.20;99.90;;;;;;5074700;28;20206;-89
2023/01/04 01:05:24;;;;;;;3.47;1.23;;;10.20;99.90;;;;;;5074694;28;20230;-80
2023/01/04 01:07:49;;;;;;;4.00;1.02;;;10.20;99.90;;;;;;5075004;28;20158;-79
2023/01/04 01:10:15;;;;;;;1.30;1.20;;;10.10;99.90;;;;;;5074379;28;20247;-81
2023/01/04 01:12:41;;;;;;;2.20;1.20;;;10.10;99.90;;;;;;5073388;28;20174;-79
2023/01/04 01:15:07;;;;;;;3.40;1.38;;;10.10;99.90;;;;;;5073379;28;20569;-78
2023/01/04 01:17:33;;;;;;;1.10;0.88;;;10.20;99.90;;;;;;5074597;28;20249;-80
2023/01/04 01:19:58;;;;;;;4.72;1.20;;;10.20;99.90;;;;;;5074508;28;20723;-79
2023/01/04 01:22:24;;;;;;;1.17;1.08;;;10.30;99.90;;;;;;5074474;28;20562;-79
2023/01/04 01:24:50;;;;;;;2.63;1.00;;;10.20;99.90;;;;;;5074138;28;20214;-79
2023/01/04 01:27:15;;;;;;;2.78;1.15;;;10.10;99.90;;;;;;5074659;28;20170;-80
2023/01/04 01:29:41;;;;;;;2.85;1.27;;;10.20;99.90;;;;;;5074390;28;20241;-80
2023/01/04 01:32:06;;;;;;;2.03;1.00;;;10.20;99.90;;;;;;5073024;28;20173;-86
2023/01/04 01:34:32;;;;;;;1.30;1.17;;;10.30;99.90;;;;;;5076684;28;20183;-77
2023/01/04 01:36:58;;;;;;;6.05;1.75;;;10.30;99.90;;;;;;5074539;28;20308;-78
2023/01/04 01:39:23;;;;;;;2.15;1.50;;;10.20;99.90;;;;;;5072656;28;20253;-78
2023/01/04 01:41:49;;;;;;;1.65;1.45;;;10.20;99.90;;;;;;5073789;28;20174;-78
2023/01/04 01:44:45;;;;;;;1.00;0.90;;;10.30;99.90;;;;;;5072563;28;20221;-81
2023/01/04 01:47:35;;;;;;;1.75;1.40;;;10.30;99.90;;;;;;5073351;28;20595;-78
2023/01/04 01:50:03;;;;;;;2.17;1.23;;;10.30;99.90;;;;;;5072493;28;20250;-78
2023/01/04 01:52:36;;;;;;;3.17;1.45;;;10.40;99.90;;;;;;5074154;28;20546;-81
2023/01/04 01:55:06;;;;;;;1.50;1.40;;;10.40;99.90;;;;;;5073888;28;20167;-79
2023/01/04 01:57:35;;;;;;;1.67;1.58;;;10.40;99.90;;;;;;5073868;28;20224;-77
2023/01/04 02:00:05;;;;;;;2.92;1.35;;;10.40;99.90;;;;;;5073708;28;20166;-77
2023/01/04 02:02:31;;;;;;;1.63;1.45;;;10.40;99.90;;;;;;5073639;28;20257;-77
2023/01/04 02:04:58;;;;;;;1.73;1.55;;;10.40;99.90;;;;;;5073462;28;20285;-77
2023/01/04 02:07:27;;;;;;;5.32;1.35;;;10.50;99.90;;;;;;5073317;28;20170;-80
2023/01/04 02:09:54;;;;;;;2.95;1.38;;;10.60;99.90;;;;;;5073510;28;20181;-78
2023/01/04 02:12:20;;;;;;;3.65;1.73;;;10.60;99.90;;;;;;5073273;28;20185;-80
2023/01/04 02:14:49;;;;;;;1.52;1.42;;;10.60;99.90;;;;;;5073373;28;20195;-78
2023/01/04 02:17:48;;;;;;;1.85;1.65;;;10.60;99.90;;;;;;5073458;28;20208;-77
2023/01/04 02:20:29;;;;;;;1.52;1.42;;;10.70;99.90;;;;;;5073312;28;20643;-77
2023/01/04 02:23:16;;;;;;;3.45;1.85;;;10.70;99.90;;;;;;5073222;28;20186;-77
2023/01/04 02:26:06;;;;;;;2.35;1.73;;;10.80;99.90;;;;;;5072898;28;20205;-77
2023/01/04 02:28:56;;;;;;;4.40;1.60;;;10.80;99.90;;;;;;5073111;28;20170;-77
2023/01/04 02:31:44;;;;;;;3.10;1.83;;;10.80;99.90;;;;;;5073050;28;20220;-78
2023/01/04 02:34:24;;;;;;;5.15;1.65;;;10.80;99.90;;;;;;5073214;28;20511;-87
2023/01/04 02:37:04;;;;;;;1.75;1.30;;;10.90;99.90;;;;;;5073792;28;20241;-77
2023/01/04 02:39:36;;;;;;;3.00;1.70;;;10.90;99.90;;;;;;5081934;28;20174;-77
2023/01/04 02:42:15;;;;;;;2.22;1.40;;;10.90;99.90;;;;;;5089520;28;20200;-77
2023/01/04 02:44:56;;;;;;;3.67;1.95;;;11.00;99.90;;;;;;5072951;28;20285;-77
2023/01/04 02:50:34;;;;;;;2.42;1.80;;;11.00;99.90;;;;;;5072924;28;20186;-77
2023/01/04 02:53:00;;;;;;;6.72;1.75;;;10.90;99.90;;;;;;5072689;28;20331;-78
2023/01/04 02:55:40;;;;;;;3.03;1.90;;;10.90;99.90;;;;;;5072576;28;20686;-77
2023/01/04 02:58:35;;;;;;;6.03;2.03;;;11.00;99.90;;;;;;5072791;28;20170;-78
2023/01/04 03:07:33;;;;;;;4.03;1.67;;;11.10;99.90;;;;;;5072943;28;20608;-80
2023/01/04 03:10:25;;;;;;;5.28;1.63;;;11.00;99.90;;;;;;5072876;28;20163;-79
2023/01/04 03:13:01;;;;;;;1.88;1.20;;;11.10;99.90;;;;;;5072407;28;20170;-80
2023/01/04 03:15:30;;;;;;;2.70;1.30;;;11.00;99.90;;;;;;5072677;28;20166;-77
2023/01/04 03:18:15;;;;;;;4.25;1.83;;;11.10;99.90;;;;;;5071375;28;20158;-77
2023/01/04 03:20:43;;;;;;;2.75;1.38;;;11.20;99.90;;;;;;5072233;28;20228;-80
2023/01/04 03:37:20;;;;;;;1.45;1.25;;;11.20;99.90;;;;;;5072348;28;20591;-77
2023/01/04 03:48:46;;;;;;;1.42;1.05;;;11.20;99.90;;;;;;5072865;28;20267;-80
2023/01/04 03:51:13;;;;;;;2.10;1.65;;;11.20;99.90;;;;;;5077563;28;20170;-78
2023/01/04 03:54:06;;;;;;;2.72;1.63;;;11.20;99.90;;;;;;5073473;28;20231;-78
2023/01/04 03:56:35;;;;;;;3.33;1.92;;;11.20;99.90;;;;;;5071972;28;20533;-78
2023/01/04 03:59:01;;;;;;;1.75;1.23;;;11.30;99.90;;;;;;5073406;28;20174;-78
2023/01/04 04:01:27;;;;;;;4.70;1.63;;;11.20;99.90;;;;;;5073356;28;20645;-78
2023/01/04 04:09:22;;;;;;;7.97;1.73;;;11.20;99.90;;;;;;5073005;28;20228;-77
2023/01/04 04:11:48;;;;;;;3.83;1.40;;;11.20;99.90;;;;;;5074177;28;20556;-77
2023/01/04 04:14:13;;;;;;;1.17;1.08;;;11.30;99.90;;;;;;5072106;28;20214;-77
2023/01/04 04:16:39;;;;;;;3.13;1.40;;;11.30;99.90;;;;;;5073124;28;20216;-78
2023/01/04 04:19:04;;;;;;;7.82;1.20;;;11.40;99.90;;;;;;5074165;28;20174;-78
2023/01/04 04:21:30;;;;;;;6.13;1.50;;;11.40;99.90;;;;;;5076564;28;20194;-79
2023/01/04 04:23:55;;;;;;;4.32;1.20;;;11.40;99.90;;;;;;5074843;28;20252;-78
2023/01/04 04:26:22;;;;;;;2.13;1.65;;;11.50;99.90;;;;;;5075093;28;20349;-79
2023/01/04 04:28:48;;;;;;;1.60;1.33;;;11.50;99.90;;;;;;5074824;28;20167;-78
2023/01/04 04:31:14;;;;;;;1.55;1.35;;;11.50;99.90;;;;;;5076220;28;20175;-78
2023/01/04 04:33:39;;;;;;;1.92;1.00;;;11.60;99.90;;;;;;5076496;28;20282;-78
2023/01/04 04:36:06;;;;;;;1.55;1.08;;;11.70;99.90;;;;;;5076680;28;20175;-78
2023/01/04 04:38:31;;;;;;;4.55;1.10;;;11.60;99.90;;;;;;5077645;28;20163;-78
2023/01/04 04:43:41;;;;;;;5.53;0.95;;;11.60;99.90;;;;;;5099654;28;20296;-80
2023/01/04 04:46:08;;;;;;;2.25;1.13;;;11.60;99.90;;;;;;5078760;28;20183;-78
2023/01/04 04:48:34;;;;;;;2.33;1.35;;;11.60;99.90;;;;;;5078121;28;20162;-78
2023/01/04 04:51:00;;;;;;;2.15;1.15;;;11.70;99.90;;;;;;5079607;28;20174;-79
2023/01/04 04:53:25;;;;;;;1.85;1.00;;;11.80;99.90;;;;;;5077577;28;20187;-79
2023/01/04 04:55:52;;;;;;;1.23;1.08;;;11.70;99.90;;;;;;5076163;28;20687;-79
2023/01/04 04:58:18;;;;;;;2.15;1.15;;;11.70;99.90;;;;;;5076989;28;20194;-80
2023/01/04 05:00:44;;;;;;;0.90;0.90;;;11.80;99.90;;;;;;5076872;28;20627;-78
2023/01/04 05:03:10;;;;;;;2.83;0.80;;;11.80;99.90;;;;;;5078439;28;20696;-79
2023/01/04 05:05:36;;;;;;;1.02;0.77;;;11.80;99.90;;;;;;5076251;28;20198;-78
2023/01/04 05:08:01;;;;;;;1.95;0.82;;;11.90;99.90;;;;;;5076695;28;20154;-79
2023/01/04 05:10:27;;;;;;;1.55;0.73;;;11.90;99.90;;;;;;5075484;28;20526;-79
2023/01/04 05:12:58;;;;;;;0.70;0.70;;;11.90;99.90;;;;;;5074254;28;20197;-79
2023/01/04 05:15:42;;;;;;;4.00;0.90;;;11.90;99.90;;;;;;5073294;28;20170;-79
2023/01/04 05:18:09;;;;;;;3.83;0.90;;;11.90;99.90;;;;;;5074370;28;20174;-79
2023/01/04 05:20:35;;;;;;;1.35;1.00;;;11.90;99.90;;;;;;5073187;28;20171;-80
2023/01/04 05:23:01;;;;;;;3.53;1.05;;;11.90;99.90;;;;;;5073241;28;20197;-79
2023/01/04 05:25:27;;;;;;;2.03;0.93;;;12.00;99.90;;;;;;5076178;28;20202;-79
2023/01/04 05:27:53;;;;;;;0.65;0.52;;;12.00;99.90;;;;;;5076503;28;20254;-80
2023/01/04 05:33:06;;;;;;;1.20;0.77;;;11.90;99.90;;;;;;5080883;28;20281;-79
2023/01/04 05:35:31;;;;;;;1.10;0.93;;;11.90;99.90;;;;;;5076784;28;20171;-79
2023/01/04 05:37:57;;;;;;;3.55;0.95;;;11.90;99.90;;;;;;5076140;28;20249;-79
2023/01/04 05:40:22;;;;;;;6.97;1.02;;;11.80;99.90;;;;;;5076174;28;20210;-80
2023/01/04 05:42:49;;;;;;;2.60;0.88;;;11.90;99.90;;;;;;5077877;28;20205;-80
2023/01/04 05:45:15;;;;;;;1.48;0.98;;;11.90;99.90;;;;;;5077174;28;20260;-79
2023/01/04 05:47:41;;;;;;;1.70;1.10;;;12.00;99.90;;;;;;5077252;28;20190;-78
2023/01/04 05:50:07;;;;;;;2.10;1.25;;;12.00;99.90;;;;;;5076553;28;20220;-79
2023/01/04 05:52:33;;;;;;;1.90;0.73;;;11.90;99.90;;;;;;5077210;28;20641;-79
2023/01/04 05:54:59;;;;;;;1.42;0.70;;;12.00;99.90;;;;;;5072057;28;20170;-79
2023/01/04 05:57:25;;;;;;;3.17;1.00;;;12.10;99.90;;;;;;5073711;28;20308;-78
2023/01/04 05:59:51;;;;;;;2.63;0.63;;;12.10;99.90;;;;;;5073486;28;20686;-79
2023/01/04 06:02:28;;;;;;;0.70;0.70;;;12.10;99.90;;;;;;5073489;28;20241;-80
2023/01/04 06:04:53;;;;;;;1.75;0.80;;;12.10;99.90;;;;;;5073639;28;20217;-79
2023/01/04 06:07:19;;;;;;;2.10;0.63;;;12.10;99.90;;;;;;5073234;28;20167;-80
2023/01/04 06:09:45;;;;;;;1.58;0.68;;;12.10;99.90;;;;;;5073114;28;20525;-80
2023/01/04 06:12:11;;;;;;;1.42;0.80;;;12.10;99.90;;;;;;5073546;28;20264;-79
2023/01/04 06:14:37;;;;;;;2.20;0.55;;;12.10;99.90;;;;;;5073177;28;20232;-86
2023/01/04 06:17:03;;;;;;;1.67;0.70;;;12.20;99.90;;;;;;5073440;28;20171;-79
2023/01/04 06:19:29;;;;;;;0.40;0.40;;;12.10;99.90;;;;;;5072053;28;20251;-79
2023/01/04 06:21:54;;;;;;;5.57;0.80;;;12.00;99.90;;;;;;5073237;28;20190;-79
2023/01/04 06:24:20;;;;;;;1.85;0.77;;;11.90;99.90;;;;;;5072808;28;20213;-79
2023/01/04 06:26:46;;;;;;;0.60;0.60;;;11.90;99.90;;;;;;5072798;28;20607;-79
2023/01/04 06:29:12;;;;;;;0.60;0.60;;;11.90;99.90;;;;;;5073247;28;20167;-80
2023/01/04 06:31:37;;;;;;;1.67;1.38;;;11.90;99.90;;;;;;5071788;28;20173;-80
2023/01/04 06:34:03;;;;;;;0.70;0.70;;;11.80;99.90;;;;;;5072875;28;20655;-79
2023/01/04 06:36:29;;;;;;;1.55;0.90;;;11.90;99.90;;;;;;5073592;28;20174;-79
2023/01/04 06:38:58;;;;;;;4.75;0.95;;;11.90;99.90;;;;;;5072954;28;20250;-79
2023/01/04 06:41:24;;;;;;;1.00;0.90;;;11.90;99.90;;;;;;5073430;28;20198;-81
2023/01/04 06:43:49;;;;;;;1.05;0.88;;;11.90;99.90;;;;;;5073142;28;20649;-94
2023/01/04 06:46:15;;;;;;;1.58;0.90;;;11.90;99.90;;;;;;5072531;28;20631;-83
2023/01/04 06:48:41;;;;;;;1.42;0.73;;;12.00;99.90;;;;;;5073465;28;20245;-89
2023/01/04 06:51:06;;;;;;;0.57;0.57;;;12.00;99.90;;;;;;5073631;28;20627;-81
2023/01/04 06:53:32;;;;;;;1.38;0.60;;;12.10;99.90;;;;;;5073439;28;20186;-92
2023/01/04 06:55:58;;;;;;;0.52;0.52;;;12.10;99.90;;;;;;5072414;28;20229;-86
2023/01/04 06:58:24;;;;;;;1.58;0.80;;;12.10;99.90;;;;;;5073527;28;20192;-81
2023/01/04 07:00:53;;;;;;;3.13;0.65;;;12.10;99.90;;;;;;5073277;28;20169;-79
2023/01/04 07:03:19;;;;;;;3.38;0.82;;;12.10;99.90;;;;;;5073088;28;20196;-79
2023/01/04 07:05:45;;;;;;;0.60;0.50;;;12.10;99.90;;;;;;5073136;28;20557;-93
2023/01/04 07:08:12;;;;;;;1.30;0.70;;;12.20;99.90;;;;;;5074102;28;20167;-79
2023/01/04 07:10:38;;;;;;;2.33;0.90;;;12.20;99.90;;;;;;5072323;28;20197;-84
2023/01/04 07:13:04;;;;;;;2.53;0.77;;;12.30;99.90;;;;;;5073039;28;20187;-83
2023/01/04 07:15:30;;;;;;;1.17;0.90;;;12.30;99.90;;;;;;5073271;28;20171;-92
2023/01/04 07:17:56;;;;;;;7.88;1.10;;;12.40;99.90;;;;;;5073131;28;20573;-81
2023/01/04 07:20:22;;;;;;;3.85;0.80;;;12.30;99.90;;;;;;5071910;28;20174;-81
2023/01/04 07:22:47;;;;;;;3.05;1.10;;;12.30;99.90;;;;;;5073356;28;20190;-89
2023/01/04 07:25:13;;;;;;;1.55;0.60;;;12.40;99.90;;;;;;5071491;28;20210;-81
2023/01/04 07:27:39;;;;;;;1.17;0.77;;;12.40;99.90;;;;;;5072758;28;20211;-84
2023/01/04 07:30:05;;;;;;;5.55;1.58;;;12.30;99.90;;;;;;5073805;28;20205;-80
2023/01/04 07:32:30;;;;;;;0.50;0.50;;;12.30;99.90;;;;;;5072475;28;20170;-85
2023/01/04 07:34:57;;;;;;;0.45;0.45;;;12.40;99.90;;;;;;5073066;28;20194;-80
2023/01/04 07:37:22;;;;;;;1.63;1.00;;;12.30;99.90;;;;;;5073573;28;20158;-91
2023/01/04 07:39:48;;;;;;;0.90;0.90;;;12.40;99.90;;;;;;5073396;28;20174;-79
2023/01/04 07:42:14;;;;;;;1.45;0.80;;;12.40;99.90;;;;;;5072561;28;20189;-88
2023/01/04 07:44:39;;;;;;;0.50;0.50;;;12.40;99.90;;;;;;5072602;28;20232;-82
2023/01/04 07:47:05;;;;;;;0.68;0.68;;;12.40;99.90;;;;;;5073645;28;20170;-94
2023/01/04 07:49:31;;;;;;;2.17;0.73;;;12.40;99.90;;;;;;5076119;28;20862;-77
2023/01/04 07:51:56;;;;;;;0.50;0.50;;;12.50;99.90;;;;;;5083580;28;20162;-80
2023/01/04 07:54:23;;;;;;;4.88;0.68;;;12.40;99.90;;;;;;5093871;28;20197;-80
2023/01/04 07:56:49;;;;;;;4.97;1.17;;;12.50;99.90;;;;;;5078831;28;20170;-79
2023/01/04 07:59:17;;;;;;;0.98;0.68;;;12.50;99.90;;;;;;5071200;28;20244;-90
2023/01/04 08:01:43;;;;;;;5.30;0.90;;;12.50;99.90;;;;;;5072603;28;20174;-82
2023/01/04 08:04:10;;;;;;;2.92;1.00;;;12.40;99.90;;;;;;5072811;28;20586;-87
2023/01/04 08:06:37;;;;;;;0.63;0.52;;;12.30;99.90;;;;;;5080278;28;20169;-87
2023/01/04 08:09:04;;;;;;;5.72;0.90;;;12.30;99.90;;;;;;5094770;28;20169;-87
2023/01/04 08:11:33;;;;;;;1.25;0.60;;;12.30;99.90;;;;;;5075698;28;20166;-82
2023/01/04 08:13:58;;;;;;;2.67;1.00;;;12.30;99.90;;;;;;5059210;28;20199;-83
2023/01/04 08:16:32;;;;;;;4.68;0.88;;;12.20;99.90;;;;;;5076797;28;20193;-80
2023/01/04 08:19:03;;;;;;;0.60;0.60;;;12.20;99.90;;;;;;5057350;28;20246;-90
2023/01/04 08:21:31;;;;;;;7.13;0.93;;;12.20;99.90;;;;;;5056034;28;20595;-85
2023/01/04 08:23:57;;;;;;;0.52;0.52;;;12.20;99.90;;;;;;5062443;28;20201;-80
2023/01/04 08:26:23;;;;;;;1.65;0.77;;;12.30;99.90;;;;;;5070458;28;20206;-80
2023/01/04 08:28:49;;;;;;;6.80;1.15;;;12.30;99.90;;;;;;5072861;28;20679;-82
2023/01/04 08:31:20;;;;;;;3.85;0.80;;;12.30;99.90;;;;;;5063660;28;20207;-86
2023/01/04 08:33:47;;;;;;;1.55;0.63;;;12.40;99.90;;;;;;5073807;28;20210;-80
2023/01/04 08:36:19;;;;;;;0.85;0.77;;;12.40;99.90;;;;;;5073440;28;20181;-79
2023/01/04 08:38:46;;;;;;;2.13;0.88;;;12.40;99.90;;;;;;5071865;28;20202;-80
2023/01/04 08:41:12;;;;;;;4.90;1.27;;;12.50;99.90;;;;;;5072607;28;20183;-80
2023/01/04 08:43:38;;;;;;;3.75;1.20;;;12.50;99.90;;;;;;5070425;28;20359;-82
2023/01/04 08:46:04;;;;;;;5.90;1.05;;;12.50;99.90;;;;;;5071338;28;20698;-83
2023/01/04 08:48:31;;;;;;;1.00;0.57;;;12.50;99.90;;;;;;5072441;28;20174;-86
2023/01/04 08:51:03;;;;;;;2.00;0.93;;;12.50;99.90;;;;;;5073688;28;20179;-79
2023/01/04 08:53:29;;;;;;;4.68;1.02;;;12.60;99.90;;;;;;5053737;28;20272;-79
2023/01/04 08:55:55;;;;;;;0.85;0.80;;;12.70;99.90;;;;;;5072378;28;20215;-80
2023/01/04 08:58:22;;;;;;;2.50;1.10;;;12.70;99.90;;;;;;5075195;28;20174;-80
2023/01/04 09:00:48;;;;;;;5.65;1.67;;;12.70;99.90;;;;;;5074338;28;20166;-81
2023/01/04 09:03:14;;;;;;;4.88;0.90;;;12.70;99.90;;;;;;5074795;28;20194;-80
2023/01/04 09:05:40;;;;;;;2.25;1.55;;;12.70;99.90;;;;;;5075957;28;20252;-88
2023/01/04 09:08:06;;;;;;;2.72;0.60;;;12.90;99.90;;;;;;5075804;28;20167;-82
2023/01/04 09:10:31;;;;;;;3.30;1.70;;;12.90;99.90;;;;;;5075179;28;20250;-78
2023/01/04 09:12:57;;;;;;;1.63;0.98;;;12.90;99.90;;;;;;5074565;28;20214;-90
2023/01/04 09:15:23;;;;;;;6.75;1.63;;;12.90;99.90;;;;;;5074956;28;20174;-83
2023/01/04 09:17:49;;;;;;;3.28;1.17;;;12.90;99.90;;;;;;5072857;28;20166;-78
2023/01/04 09:20:15;;;;;;;4.75;1.30;;;13.00;99.90;;;;;;5072355;28;20673;-78
2023/01/04 09:22:41;;;;;;;7.75;2.60;;;13.00;99.90;;;;;;5070425;28;20205;-88
2023/01/04 09:25:07;;;;;;;4.03;1.33;;;13.00;99.90;;;;;;5073552;28;20197;-88
2023/01/04 09:27:33;;;;;;;8.05;2.03;;;13.00;99.90;;;;;;5074013;28;20194;-85
2023/01/04 09:29:59;;;;;;;0.90;0.80;;;13.00;99.90;;;;;;5075797;28;20653;-90
2023/01/04 09:32:25;;;;;;;1.73;1.25;;;13.00;99.90;;;;;;5074586;28;20174;-79
2023/01/04 09:34:51;;;;;;;1.13;0.63;;;13.00;99.90;;;;;;5079785;28;20201;-79
2023/01/04 09:37:16;;;;;;;3.83;1.52;;;13.00;99.90;;;;;;5082084;28;20159;-79
2023/01/04 09:39:43;;;;;;;0.90;0.73;;;13.10;99.90;;;;;;5080493;28;20176;-79
2023/01/04 09:42:35;;;;;;;2.53;1.17;;;13.00;99.90;;;;;;5072010;28;20368;-80
2023/01/04 09:45:22;;;;;;;2.05;0.95;;;13.00;99.90;;;;;;5071998;28;20218;-89
2023/01/04 09:47:57;;;;;;;2.75;0.80;;;13.00;99.90;;;;;;5073692;28;20171;-89
2023/01/04 09:50:27;;;;;;;4.63;0.85;;;12.90;99.90;;;;;;5072474;28;20213;-79
2023/01/04 09:53:11;;;;;;;1.58;0.80;;;13.00;99.90;;;;;;5074032;28;20182;-80
2023/01/04 09:55:41;;;;;;;1.92;0.90;;;12.90;99.90;;;;;;5085524;28;20257;-80
2023/01/04 09:58:13;;;;;;;2.50;0.80;;;12.90;99.90;;;;;;5073875;28;20677;-80
2023/01/04 10:00:49;;;;;;;1.23;0.57;;;12.90;99.90;;;;;;5084796;28;20192;-79
2023/01/04 10:03:17;;;;;;;0.88;0.55;;;13.00;99.90;;;;;;5077405;28;20200;-80
2023/01/04 10:05:43;;;;;;;0.85;0.50;;;12.90;99.90;;;;;;5073964;28;20285;-80
2023/01/04 10:08:16;;;;;;;2.42;0.90;;;12.90;99.90;;;;;;5074021;28;20253;-80
2023/01/04 10:10:47;;;;;;;0.90;0.70;;;12.80;99.90;;;;;;5085705;28;20174;-84
2023/01/04 10:13:50;;;;;;;0.80;0.80;;;12.70;99.90;;;;;;5077489;28;20236;-84
2023/01/04 10:16:54;;;;;;;2.33;0.80;;;12.70;99.90;;;;;;5073978;28;20262;-82
2023/01/04 10:19:26;;;;;;;1.40;0.90;;;12.70;99.90;;;;;;5073577;28;20193;-79
2023/01/04 10:22:38;;;;;;;2.97;0.93;;;12.70;99.90;;;;;;5074378;28;20177;-86
2023/01/04 10:25:31;;;;;;;1.08;0.80;;;12.70;99.90;;;;;;5043067;28;20228;-84
2023/01/04 10:28:28;;;;;;;1.55;1.00;;;12.70;99.90;;;;;;5067969;28;20164;-80
2023/01/04 10:31:14;;;;;;;2.75;0.65;;;12.70;99.90;;;;;;5072916;28;20245;-79
2023/01/04 10:33:54;;;;;;;0.80;0.80;;;12.60;99.90;;;;;;5074563;28;20272;-79
2023/01/04 10:36:23;;;;;;;5.95;1.83;;;12.70;99.90;;;;;;5075817;28;20173;-79
2023/01/04 10:39:03;;;;;;;2.53;1.27;;;12.70;99.90;;;;;;5075216;28;20232;-81
2023/01/04 10:41:35;;;;;;;1.80;1.00;;;12.70;99.90;;;;;;5075321;28;20166;-79
2023/01/04 10:44:05;;;;;;;4.28;0.93;;;12.70;99.90;;;;;;5073840;28;20267;-79
2023/01/04 10:46:49;;;;;;;1.40;0.82;;;12.70;99.90;;;;;;5074703;28;20212;-79
2023/01/04 10:49:26;;;;;;;1.02;0.80;;;12.70;99.90;;;;;;5073506;28;20170;-79
2023/01/04 10:52:01;;;;;;;0.80;0.80;;;12.70;99.90;;;;;;5073566;28;20198;-82
2023/01/04 10:54:36;;;;;;;6.43;1.23;;;12.70;99.90;;;;;;5072485;28;20190;-80
2023/01/04 10:57:19;;;;;;;4.65;1.23;;;12.70;99.90;;;;;;5074017;28;20174;-79
2023/01/04 11:00:09;;;;;;;4.50;0.90;;;12.80;99.90;;;;;;5071625;28;20171;-82
2023/01/04 11:03:02;;;;;;;1.48;0.80;;;12.80;99.90;;;;;;5058424;28;20190;-80
2023/01/04 11:05:35;;;;;;;3.05;1.40;;;12.80;99.90;;;;;;5076041;28;20206;-87
2023/01/04 11:08:27;;;;;;;1.60;0.93;;;12.70;99.90;;;;;;5079562;28;20654;-89
2023/01/04 11:10:59;;;;;;;2.95;1.30;;;12.70;99.90;;;;;;5080729;28;20367;-80
2023/01/04 11:13:25;;;;;;;2.05;0.93;;;12.70;99.90;;;;;;5076369;28;20306;-79
2023/01/04 11:15:51;;;;;;;1.45;1.00;;;12.70;99.90;;;;;;5077202;28;20169;-81
2023/01/04 11:18:17;;;;;;;11.25;1.00;;;12.70;99.90;;;;;;5074560;28;20173;-80
2023/01/04 11:20:43;;;;;;;1.02;0.85;;;12.70;99.90;;;;;;5074874;28;20174;-81
2023/01/04 11:23:20;;;;;;;2.05;1.27;;;12.80;99.90;;;;;;5073025;28;20190;-80
2023/01/04 11:25:55;;;;;;;3.03;1.30;;;12.80;99.90;;;;;;5075203;28;20237;-80
2023/01/04 11:28:36;;;;;;;1.15;0.82;;;12.80;99.90;;;;;;5072689;28;20411;-87
2023/01/04 11:31:08;;;;;;;1.17;1.08;;;12.80;99.90;;;;;;5072181;28;20291;-83
2023/01/04 11:33:59;;;;;;;1.45;1.10;;;12.80;99.90;;;;;;5072565;28;20198;-79
2023/01/04 11:36:34;;;;;;;0.85;0.80;;;12.80;99.90;;;;;;5072968;28;20631;-78
2023/01/04 11:39:01;;;;;;;1.33;0.90;;;12.80;99.90;;;;;;5072930;28;20215;-79
2023/01/04 11:41:26;;;;;;;4.10;0.90;;;12.80;99.90;;;;;;5076786;28;20171;-81
2023/01/04 11:44:02;;;;;;;2.35;0.90;;;12.90;99.90;;;;;;5077134;28;20198;-79
2023/01/04 11:46:29;;;;;;;1.75;0.60;;;12.90;99.90;;;;;;5076623;28;20219;-79
2023/01/04 11:48:55;;;;;;;4.10;1.35;;;12.90;99.90;;;;;;5075158;28;20177;-79
2023/01/04 11:51:30;;;;;;;3.35;0.93;;;12.90;99.90;;;;;;5076682;28;20167;-79
2023/01/04 11:54:04;;;;;;;0.80;0.80;;;12.90;99.90;;;;;;5079428;28;20186;-80
2023/01/04 11:56:35;;;;;;;3.80;1.27;;;12.80;99.90;;;;;;5076485;28;20160;-78
2023/01/04 11:59:13;;;;;;;1.67;1.10;;;12.80;99.90;;;;;;5076095;28;20171;-81
2023/01/04 12:01:44;;;;;;;0.73;0.70;;;12.80;99.90;;;;;;5076332;28;20162;-79
2023/01/04 12:04:19;;;;;;;2.38;0.70;;;13.00;99.90;;;;;;5075700;28;20214;-84
2023/01/04 12:07:14;;;;;;;1.25;0.85;;;13.00;99.90;;;;;;5076334;28;20244;-80
2023/01/04 12:09:40;;;;;;;1.98;1.20;;;13.00;99.90;;;;;;5076439;28;20171;-81
2023/01/04 12:12:06;;;;;;;4.22;0.60;;;13.00;99.90;;;;;;5076926;28;20227;-79
2023/01/04 12:14:35;;;;;;;2.88;0.90;;;13.00;99.90;;;;;;5074073;28;20734;-85
2023/01/04 12:17:01;;;;;;;1.48;0.90;;;13.00;99.90;;;;;;5075628;28;20175;-84
2023/01/04 12:19:27;;;;;;;2.78;0.90;;;13.00;99.90;;;;;;5075365;28;20181;-79
2023/01/04 12:21:58;;;;;;;1.30;0.77;;;12.90;99.90;;;;;;5076097;28;20182;-80
2023/01/04 12:24:27;;;;;;;5.78;1.08;;;13.00;99.90;;;;;;5072800;28;20660;-81
2023/01/04 12:26:53;;;;;;;3.45;3.15;;;13.00;99.90;;;;;;5075320;28;20634;-79
2023/01/04 12:29:22;;;;;;;5.00;1.77;;;13.00;99.90;;;;;;5076081;28;20639;-87
2023/01/04 12:32:15;;;;;;;1.13;0.73;;;12.90;99.90;;;;;;5074680;28;20175;-86
2023/01/04 12:34:43;;;;;;;0.60;0.60;;;12.90;99.90;;;;;;5076088;28;20182;-87
2023/01/04 12:37:10;;;;;;;5.47;0.60;;;12.90;99.90;;;;;;5073867;28;20179;-80
2023/01/04 12:39:40;;;;;;;0.73;0.73;;;12.90;99.90;;;;;;5075578;28;20639;-79
2023/01/04 12:42:19;;;;;;;1.05;0.73;;;13.00;99.90;;;;;;5074728;28;20665;-88
2023/01/04 12:44:50;;;;;;;0.88;0.88;;;13.00;99.90;;;;;;5075501;28;20289;-81
2023/01/04 12:50:09;;;;;;;1.42;1.20;;;13.00;99.90;;;;;;5075303;28;20224;-80
2023/01/04 12:52:41;;;;;;;2.67;0.82;;;13.00;99.90;;;;;;5073913;28;20182;-78
2023/01/04 12:55:25;;;;;;;5.60;1.63;;;13.00;99.90;;;;;;5073861;28;20355;-79
2023/01/04 12:57:50;;;;;;;3.10;1.10;;;13.20;99.90;;;;;;5075809;28;20167;-79
2023/01/04 13:00:16;;;;;;;0.73;0.70;;;13.20;99.90;;;;;;5074072;28;20300;-82
2023/01/04 13:02:50;;;;;;;1.63;0.70;;;13.20;99.90;;;;;;5076038;28;20252;-79
2023/01/04 13:05:16;;;;;;;0.80;0.80;;;13.30;99.90;;;;;;5075593;28;20301;-83
2023/01/04 13:07:48;;;;;;;0.70;0.70;;;13.20;99.90;;;;;;5075396;28;20233;-80
2023/01/04 13:10:19;;;;;;;0.60;0.60;;;13.20;99.90;;;;;;5075155;28;20665;-79
2023/01/04 13:12:53;;;;;;;1.77;0.75;;;13.20;99.90;;;;;;5075673;28;20171;-81
2023/01/04 13:15:40;;;;;;;1.17;0.80;;;13.10;99.90;;;;;;5075849;28;20280;-83
2023/01/04 13:18:33;;;;;;;3.70;1.08;;;13.20;99.90;;;;;;5075175;28;20263;-81
2023/01/04 13:21:25;;;;;;;1.35;0.88;;;13.10;99.90;;;;;;5073706;28;20189;-79
2023/01/04 13:23:53;;;;;;;2.78;1.00;;;13.20;99.90;;;;;;5074165;28;20206;-82
2023/01/04 13:26:39;;;;;;;2.35;1.33;;;13.30;99.90;;;;;;5074903;28;20183;-83
2023/01/04 13:29:07;;;;;;;1.02;0.98;;;13.20;99.90;;;;;;5073455;28;20166;-80
2023/01/04 13:31:54;;;;;;;4.72;1.20;;;13.30;99.90;;;;;;5075067;28;20189;-80
2023/01/04 13:34:34;;;;;;;2.45;0.90;;;13.30;99.90;;;;;;5075122;28;20266;-82
2023/01/04 13:37:12;;;;;;;0.98;0.90;;;13.40;99.90;;;;;;5074411;28;20178;-84
2023/01/04 13:39:40;;;;;;;1.00;0.80;;;13.40;99.90;;;;;;5073278;28;20169;-79
2023/01/04 13:42:17;;;;;;;1.45;1.13;;;13.50;99.90;;;;;;5074464;28;20190;-79
2023/01/04 13:45:08;;;;;;;1.40;0.90;;;13.50;99.90;;;;;;5074188;28;20293;-80
2023/01/04 13:47:36;;;;;;;3.78;1.25;;;13.60;99.90;;;;;;5073528;28;20174;-80
2023/01/04 13:50:03;;;;;;;1.00;0.90;;;13.60;99.90;;;;;;5074614;28;20181;-80
2023/01/04 13:52:29;;;;;;;1.33;0.80;;;13.50;99.90;;;;;;5073865;28;20163;-79
2023/01/04 13:55:20;;;;;;;1.98;1.02;;;13.50;99.90;;;;;;5073230;28;20186;-79
2023/01/04 13:57:53;;;;;;;0.80;0.80;;;13.60;99.90;;;;;;5072495;28;20224;-82
2023/01/04 14:00:19;;;;;;;1.30;1.20;;;13.50;99.90;;;;;;5073846;28;20182;-79